Аэропорт
Угольный (UHMA)

 UHMA / DYR
ЗЦ Хабаровск
Магадан (UHMM)
Магадан (UHMM)
 64.73490, 177.74100  / 194 ft

 UHMA 161500Z 00000MPS 0050 R01/0100N FG VV001 09/08 Q1010 R01/////// NOSIG RMK TDZ R01/00000G01MPS END R01/32001MPS QBB040 QFE754/1005
 TAF AMD UHMA 161237Z 1612/1712 16003G08MPS 6000 SCT020 TEMPO 1612/1712 12008G13MPS 0300 FG BKN003
UHMA_j_0220
показать схемы
Название сценария Тип сценария Flight Simulator 9 Flight Simulator X Prepar3D v2 Prepar3D v3 Prepar3D v4 Prepar3D v5 xPlane
UHMA xPlane бесплатный
uhma-scenery-fs9-1003 бесплатный
uhma-scenery-fsx-1308 бесплатный
UHMA_P3D_v.4.4 бесплатный


2020 © VATRUS division (Privacy Policy)